sensor_id;sensor_type;location;lat;lon;timestamp;temperature;humidity
11736;DHT22;5924;51.398;7.088;2023-05-10T00:00:25;12.50;99.90
11736;DHT22;5924;51.398;7.088;2023-05-10T00:02:51;12.50;99.90
11736;DHT22;5924;51.398;7.088;2023-05-10T00:05:17;12.50;99.90
11736;DHT22;5924;51.398;7.088;2023-05-10T00:07:42;12.50;99.90
11736;DHT22;5924;51.398;7.088;2023-05-10T00:10:10;12.50;99.90
11736;DHT22;5924;51.398;7.088;2023-05-10T00:12:36;12.40;99.90
11736;DHT22;5924;51.398;7.088;2023-05-10T00:15:02;12.40;99.90
11736;DHT22;5924;51.398;7.088;2023-05-10T00:17:28;12.40;99.90
11736;DHT22;5924;51.398;7.088;2023-05-10T00:19:54;12.40;99.90
11736;DHT22;5924;51.398;7.088;2023-05-10T00:22:19;12.40;99.90
11736;DHT22;5924;51.398;7.088;2023-05-10T00:24:45;12.50;99.90
11736;DHT22;5924;51.398;7.088;2023-05-10T00:27:11;12.50;99.90
11736;DHT22;5924;51.398;7.088;2023-05-10T00:29:36;12.80;99.90
11736;DHT22;5924;51.398;7.088;2023-05-10T00:32:02;12.40;99.90
11736;DHT22;5924;51.398;7.088;2023-05-10T00:34:28;12.40;99.90
11736;DHT22;5924;51.398;7.088;2023-05-10T00:36:53;12.40;99.90
11736;DHT22;5924;51.398;7.088;2023-05-10T00:39:19;12.50;99.90
11736;DHT22;5924;51.398;7.088;2023-05-10T00:41:45;12.50;99.90
11736;DHT22;5924;51.398;7.088;2023-05-10T00:44:11;12.40;99.90
11736;DHT22;5924;51.398;7.088;2023-05-10T00:46:37;12.50;99.90
11736;DHT22;5924;51.398;7.088;2023-05-10T00:49:02;12.50;99.90
11736;DHT22;5924;51.398;7.088;2023-05-10T00:51:28;12.50;99.90
11736;DHT22;5924;51.398;7.088;2023-05-10T00:53:54;12.50;99.90
11736;DHT22;5924;51.398;7.088;2023-05-10T00:56:21;12.50;99.90
11736;DHT22;5924;51.398;7.088;2023-05-10T00:58:48;12.50;99.90
11736;DHT22;5924;51.398;7.088;2023-05-10T01:01:14;12.50;99.90
11736;DHT22;5924;51.398;7.088;2023-05-10T01:03:40;12.50;99.90
11736;DHT22;5924;51.398;7.088;2023-05-10T01:06:07;12.50;99.90
11736;DHT22;5924;51.398;7.088;2023-05-10T01:15:16;12.50;99.90
11736;DHT22;5924;51.398;7.088;2023-05-10T01:17:45;12.50;99.90
11736;DHT22;5924;51.398;7.088;2023-05-10T01:20:12;12.40;99.90
11736;DHT22;5924;51.398;7.088;2023-05-10T01:39:30;12.30;99.90
11736;DHT22;5924;51.398;7.088;2023-05-10T01:41:59;12.30;99.90
11736;DHT22;5924;51.398;7.088;2023-05-10T01:44:42;12.30;99.90
11736;DHT22;5924;51.398;7.088;2023-05-10T01:47:15;12.30;99.90
11736;DHT22;5924;51.398;7.088;2023-05-10T01:49:50;12.30;99.90
11736;DHT22;5924;51.398;7.088;2023-05-10T01:52:19;12.30;99.90
11736;DHT22;5924;51.398;7.088;2023-05-10T01:55:08;12.30;99.90
11736;DHT22;5924;51.398;7.088;2023-05-10T01:57:39;12.30;99.90
11736;DHT22;5924;51.398;7.088;2023-05-10T02:00:07;12.30;99.90
11736;DHT22;5924;51.398;7.088;2023-05-10T02:02:37;12.30;99.90
11736;DHT22;5924;51.398;7.088;2023-05-10T02:05:05;12.30;99.90
11736;DHT22;5924;51.398;7.088;2023-05-10T02:07:34;12.30;99.90
11736;DHT22;5924;51.398;7.088;2023-05-10T02:10:05;12.30;99.90
11736;DHT22;5924;51.398;7.088;2023-05-10T02:12:32;12.30;99.90
11736;DHT22;5924;51.398;7.088;2023-05-10T02:15:02;12.20;99.90
11736;DHT22;5924;51.398;7.088;2023-05-10T02:17:31;12.20;99.90
11736;DHT22;5924;51.398;7.088;2023-05-10T02:19:59;12.10;99.90
11736;DHT22;5924;51.398;7.088;2023-05-10T02:22:27;12.10;99.90
11736;DHT22;5924;51.398;7.088;2023-05-10T02:24:55;12.10;99.90
11736;DHT22;5924;51.398;7.088;2023-05-10T02:27:24;12.00;99.90
11736;DHT22;5924;51.398;7.088;2023-05-10T02:29:51;12.00;99.90
11736;DHT22;5924;51.398;7.088;2023-05-10T02:32:18;12.00;99.90
11736;DHT22;5924;51.398;7.088;2023-05-10T02:34:45;12.00;99.90
11736;DHT22;5924;51.398;7.088;2023-05-10T02:37:14;11.90;99.90
11736;DHT22;5924;51.398;7.088;2023-05-10T02:39:41;11.90;99.90
11736;DHT22;5924;51.398;7.088;2023-05-10T02:42:18;11.90;99.90
11736;DHT22;5924;51.398;7.088;2023-05-10T02:44:48;11.90;99.90
11736;DHT22;5924;51.398;7.088;2023-05-10T02:47:15;12.00;99.90
11736;DHT22;5924;51.398;7.088;2023-05-10T02:49:42;12.00;99.90
11736;DHT22;5924;51.398;7.088;2023-05-10T02:52:08;12.00;99.90
11736;DHT22;5924;51.398;7.088;2023-05-10T02:54:45;12.00;99.90
11736;DHT22;5924;51.398;7.088;2023-05-10T02:57:24;12.00;99.90
11736;DHT22;5924;51.398;7.088;2023-05-10T02:59:51;12.00;99.90
11736;DHT22;5924;51.398;7.088;2023-05-10T03:02:17;12.00;99.90
11736;DHT22;5924;51.398;7.088;2023-05-10T03:04:43;12.00;99.90
11736;DHT22;5924;51.398;7.088;2023-05-10T03:07:08;12.00;99.90
11736;DHT22;5924;51.398;7.088;2023-05-10T03:09:34;12.00;99.90
11736;DHT22;5924;51.398;7.088;2023-05-10T03:12:07;12.00;99.90
11736;DHT22;5924;51.398;7.088;2023-05-10T03:17:23;12.00;99.90
11736;DHT22;5924;51.398;7.088;2023-05-10T03:20:06;12.00;99.90
11736;DHT22;5924;51.398;7.088;2023-05-10T03:22:37;12.00;99.90
11736;DHT22;5924;51.398;7.088;2023-05-10T03:25:06;12.00;99.90
11736;DHT22;5924;51.398;7.088;2023-05-10T03:27:32;11.90;99.90
11736;DHT22;5924;51.398;7.088;2023-05-10T03:30:00;11.90;99.90
11736;DHT22;5924;51.398;7.088;2023-05-10T03:32:28;11.90;99.90
11736;DHT22;5924;51.398;7.088;2023-05-10T03:34:55;11.90;99.90
11736;DHT22;5924;51.398;7.088;2023-05-10T03:37:21;11.90;99.90
11736;DHT22;5924;51.398;7.088;2023-05-10T03:39:46;11.90;99.90
11736;DHT22;5924;51.398;7.088;2023-05-10T03:42:12;11.90;99.90
11736;DHT22;5924;51.398;7.088;2023-05-10T03:44:40;11.90;99.90
11736;DHT22;5924;51.398;7.088;2023-05-10T03:47:06;11.80;99.90
11736;DHT22;5924;51.398;7.088;2023-05-10T03:49:32;11.80;99.90
11736;DHT22;5924;51.398;7.088;2023-05-10T03:51:57;11.90;99.90
11736;DHT22;5924;51.398;7.088;2023-05-10T03:54:23;11.90;99.90
11736;DHT22;5924;51.398;7.088;2023-05-10T03:56:49;11.90;99.90
11736;DHT22;5924;51.398;7.088;2023-05-10T03:59:14;11.90;99.90
11736;DHT22;5924;51.398;7.088;2023-05-10T04:01:40;12.00;99.90
11736;DHT22;5924;51.398;7.088;2023-05-10T04:04:06;12.00;99.90
11736;DHT22;5924;51.398;7.088;2023-05-10T04:06:32;12.00;99.90
11736;DHT22;5924;51.398;7.088;2023-05-10T04:08:57;12.00;99.90
11736;DHT22;5924;51.398;7.088;2023-05-10T04:11:25;12.00;99.90
11736;DHT22;5924;51.398;7.088;2023-05-10T04:13:50;12.00;99.90
11736;DHT22;5924;51.398;7.088;2023-05-10T04:16:16;12.00;99.90
11736;DHT22;5924;51.398;7.088;2023-05-10T04:18:42;12.00;99.90
11736;DHT22;5924;51.398;7.088;2023-05-10T04:21:12;12.00;99.90
11736;DHT22;5924;51.398;7.088;2023-05-10T04:23:38;12.00;99.90
11736;DHT22;5924;51.398;7.088;2023-05-10T04:26:04;12.10;99.90
11736;DHT22;5924;51.398;7.088;2023-05-10T04:28:30;12.10;99.90
11736;DHT22;5924;51.398;7.088;2023-05-10T04:31:03;12.10;99.90
11736;DHT22;5924;51.398;7.088;2023-05-10T04:33:29;12.10;99.90
11736;DHT22;5924;51.398;7.088;2023-05-10T04:35:55;12.10;99.90
11736;DHT22;5924;51.398;7.088;2023-05-10T04:38:20;12.20;99.90
11736;DHT22;5924;51.398;7.088;2023-05-10T04:40:46;12.20;99.90
11736;DHT22;5924;51.398;7.088;2023-05-10T04:43:11;12.20;99.90
11736;DHT22;5924;51.398;7.088;2023-05-10T04:45:37;12.20;99.90
11736;DHT22;5924;51.398;7.088;2023-05-10T04:48:03;12.20;99.90
11736;DHT22;5924;51.398;7.088;2023-05-10T04:50:29;12.20;99.90
11736;DHT22;5924;51.398;7.088;2023-05-10T04:52:54;12.20;99.90
11736;DHT22;5924;51.398;7.088;2023-05-10T04:55:20;12.20;99.90
11736;DHT22;5924;51.398;7.088;2023-05-10T04:57:46;12.20;99.90
11736;DHT22;5924;51.398;7.088;2023-05-10T05:00:13;11.90;99.90
11736;DHT22;5924;51.398;7.088;2023-05-10T05:02:42;12.20;99.90
11736;DHT22;5924;51.398;7.088;2023-05-10T05:05:09;12.20;99.90
11736;DHT22;5924;51.398;7.088;2023-05-10T05:07:35;12.30;99.90
11736;DHT22;5924;51.398;7.088;2023-05-10T05:10:00;12.30;99.90
11736;DHT22;5924;51.398;7.088;2023-05-10T05:12:26;12.30;99.90
11736;DHT22;5924;51.398;7.088;2023-05-10T05:14:51;12.30;99.90
11736;DHT22;5924;51.398;7.088;2023-05-10T05:17:17;12.30;99.90
11736;DHT22;5924;51.398;7.088;2023-05-10T05:19:42;12.40;99.90
11736;DHT22;5924;51.398;7.088;2023-05-10T05:22:08;12.40;99.90
11736;DHT22;5924;51.398;7.088;2023-05-10T05:24:37;12.40;99.90
11736;DHT22;5924;51.398;7.088;2023-05-10T05:27:06;12.40;99.90
11736;DHT22;5924;51.398;7.088;2023-05-10T05:29:32;12.50;99.90
11736;DHT22;5924;51.398;7.088;2023-05-10T05:31:58;12.50;99.90
11736;DHT22;5924;51.398;7.088;2023-05-10T05:34:23;12.60;99.90
11736;DHT22;5924;51.398;7.088;2023-05-10T05:36:49;12.70;99.90
11736;DHT22;5924;51.398;7.088;2023-05-10T05:39:15;11.80;99.90
11736;DHT22;5924;51.398;7.088;2023-05-10T05:41:41;12.70;99.90
11736;DHT22;5924;51.398;7.088;2023-05-10T05:44:07;12.70;99.90
11736;DHT22;5924;51.398;7.088;2023-05-10T05:46:33;12.70;99.90
11736;DHT22;5924;51.398;7.088;2023-05-10T05:48:59;12.60;99.90
11736;DHT22;5924;51.398;7.088;2023-05-10T05:51:24;12.70;99.90
11736;DHT22;5924;51.398;7.088;2023-05-10T05:53:50;12.70;99.90
11736;DHT22;5924;51.398;7.088;2023-05-10T05:56:16;12.80;99.90
11736;DHT22;5924;51.398;7.088;2023-05-10T05:58:42;12.90;99.90
11736;DHT22;5924;51.398;7.088;2023-05-10T06:01:08;13.00;99.90
11736;DHT22;5924;51.398;7.088;2023-05-10T06:03:34;13.10;99.90
11736;DHT22;5924;51.398;7.088;2023-05-10T06:06:00;13.20;99.90
11736;DHT22;5924;51.398;7.088;2023-05-10T06:08:25;13.30;99.90
11736;DHT22;5924;51.398;7.088;2023-05-10T06:10:51;15.50;99.90
11736;DHT22;5924;51.398;7.088;2023-05-10T06:13:17;13.40;99.90
11736;DHT22;5924;51.398;7.088;2023-05-10T06:15:42;13.30;99.90
11736;DHT22;5924;51.398;7.088;2023-05-10T06:18:08;13.30;99.90
11736;DHT22;5924;51.398;7.088;2023-05-10T06:20:34;13.40;99.90
11736;DHT22;5924;51.398;7.088;2023-05-10T06:22:59;13.40;99.90
11736;DHT22;5924;51.398;7.088;2023-05-10T06:25:25;13.30;99.90
11736;DHT22;5924;51.398;7.088;2023-05-10T06:27:51;13.40;99.90
11736;DHT22;5924;51.398;7.088;2023-05-10T06:30:20;13.40;99.90
11736;DHT22;5924;51.398;7.088;2023-05-10T06:32:48;14.40;99.90
11736;DHT22;5924;51.398;7.088;2023-05-10T06:35:14;13.60;99.90
11736;DHT22;5924;51.398;7.088;2023-05-10T06:37:39;13.60;99.90
11736;DHT22;5924;51.398;7.088;2023-05-10T06:40:06;13.70;99.90
11736;DHT22;5924;51.398;7.088;2023-05-10T06:42:32;13.70;99.90
11736;DHT22;5924;51.398;7.088;2023-05-10T06:44:57;13.70;99.90
11736;DHT22;5924;51.398;7.088;2023-05-10T06:47:23;13.80;99.90
11736;DHT22;5924;51.398;7.088;2023-05-10T06:49:49;11.70;99.90
11736;DHT22;5924;51.398;7.088;2023-05-10T06:52:14;13.80;99.90
11736;DHT22;5924;51.398;7.088;2023-05-10T06:54:40;13.80;99.90
11736;DHT22;5924;51.398;7.088;2023-05-10T06:57:05;13.90;99.90
11736;DHT22;5924;51.398;7.088;2023-05-10T06:59:31;14.00;99.90
11736;DHT22;5924;51.398;7.088;2023-05-10T07:01:57;14.10;99.90
11736;DHT22;5924;51.398;7.088;2023-05-10T07:04:23;14.20;99.90
11736;DHT22;5924;51.398;7.088;2023-05-10T07:06:48;14.20;99.90
11736;DHT22;5924;51.398;7.088;2023-05-10T07:09:15;14.20;99.90
11736;DHT22;5924;51.398;7.088;2023-05-10T07:11:41;14.10;99.90
11736;DHT22;5924;51.398;7.088;2023-05-10T07:14:06;14.10;99.90
11736;DHT22;5924;51.398;7.088;2023-05-10T07:16:32;13.90;99.90
11736;DHT22;5924;51.398;7.088;2023-05-10T07:18:58;13.90;99.90
11736;DHT22;5924;51.398;7.088;2023-05-10T07:21:23;13.70;99.90
11736;DHT22;5924;51.398;7.088;2023-05-10T07:23:49;13.60;99.90
11736;DHT22;5924;51.398;7.088;2023-05-10T07:26:15;13.60;99.90
11736;DHT22;5924;51.398;7.088;2023-05-10T07:28:41;13.70;99.90
11736;DHT22;5924;51.398;7.088;2023-05-10T07:31:07;13.90;99.90
11736;DHT22;5924;51.398;7.088;2023-05-10T07:33:33;14.10;99.90
11736;DHT22;5924;51.398;7.088;2023-05-10T07:35:58;14.30;99.90
11736;DHT22;5924;51.398;7.088;2023-05-10T07:38:24;14.30;99.90
11736;DHT22;5924;51.398;7.088;2023-05-10T07:40:50;14.40;99.90
11736;DHT22;5924;51.398;7.088;2023-05-10T07:43:15;14.40;99.90
11736;DHT22;5924;51.398;7.088;2023-05-10T07:45:41;14.40;99.90
11736;DHT22;5924;51.398;7.088;2023-05-10T07:48:07;14.40;99.90
11736;DHT22;5924;51.398;7.088;2023-05-10T07:50:32;14.50;99.90
11736;DHT22;5924;51.398;7.088;2023-05-10T07:52:58;14.50;99.90
11736;DHT22;5924;51.398;7.088;2023-05-10T07:55:24;14.60;99.90
11736;DHT22;5924;51.398;7.088;2023-05-10T07:57:50;14.70;99.90
11736;DHT22;5924;51.398;7.088;2023-05-10T08:00:18;14.70;99.90
11736;DHT22;5924;51.398;7.088;2023-05-10T08:02:44;14.50;99.90
11736;DHT22;5924;51.398;7.088;2023-05-10T08:05:10;14.40;99.90
11736;DHT22;5924;51.398;7.088;2023-05-10T08:07:36;14.40;99.90
11736;DHT22;5924;51.398;7.088;2023-05-10T08:10:03;14.30;99.90
11736;DHT22;5924;51.398;7.088;2023-05-10T08:12:28;15.50;99.90
11736;DHT22;5924;51.398;7.088;2023-05-10T08:14:54;14.30;99.90
11736;DHT22;5924;51.398;7.088;2023-05-10T08:17:22;14.20;99.90
11736;DHT22;5924;51.398;7.088;2023-05-10T08:19:50;14.30;99.90
11736;DHT22;5924;51.398;7.088;2023-05-10T08:22:16;14.40;99.90
11736;DHT22;5924;51.398;7.088;2023-05-10T08:24:42;14.50;99.90
11736;DHT22;5924;51.398;7.088;2023-05-10T08:27:08;14.70;99.90
11736;DHT22;5924;51.398;7.088;2023-05-10T08:29:34;14.70;99.90
11736;DHT22;5924;51.398;7.088;2023-05-10T08:32:00;14.70;99.90
11736;DHT22;5924;51.398;7.088;2023-05-10T08:34:26;14.80;99.90
11736;DHT22;5924;51.398;7.088;2023-05-10T08:36:52;14.80;99.90
11736;DHT22;5924;51.398;7.088;2023-05-10T08:39:18;14.80;99.90
11736;DHT22;5924;51.398;7.088;2023-05-10T08:41:45;14.90;99.90
11736;DHT22;5924;51.398;7.088;2023-05-10T08:44:12;15.00;99.90
11736;DHT22;5924;51.398;7.088;2023-05-10T08:46:41;15.00;99.90
11736;DHT22;5924;51.398;7.088;2023-05-10T08:49:13;15.10;99.90
11736;DHT22;5924;51.398;7.088;2023-05-10T08:51:46;15.10;99.90
11736;DHT22;5924;51.398;7.088;2023-05-10T08:54:12;15.20;99.90
11736;DHT22;5924;51.398;7.088;2023-05-10T08:56:39;15.30;99.90
11736;DHT22;5924;51.398;7.088;2023-05-10T08:59:04;15.60;99.90
11736;DHT22;5924;51.398;7.088;2023-05-10T09:01:31;15.90;99.90
11736;DHT22;5924;51.398;7.088;2023-05-10T09:03:58;16.30;99.90
11736;DHT22;5924;51.398;7.088;2023-05-10T09:06:24;16.50;99.90
11736;DHT22;5924;51.398;7.088;2023-05-10T09:08:50;16.50;99.90
11736;DHT22;5924;51.398;7.088;2023-05-10T09:11:17;16.60;99.90
11736;DHT22;5924;51.398;7.088;2023-05-10T09:13:43;16.70;99.90
11736;DHT22;5924;51.398;7.088;2023-05-10T09:16:09;16.90;99.90
11736;DHT22;5924;51.398;7.088;2023-05-10T09:18:35;16.90;99.90
11736;DHT22;5924;51.398;7.088;2023-05-10T09:21:01;17.00;99.90
11736;DHT22;5924;51.398;7.088;2023-05-10T09:23:27;17.00;99.90
11736;DHT22;5924;51.398;7.088;2023-05-10T09:26:04;17.00;99.90
11736;DHT22;5924;51.398;7.088;2023-05-10T09:28:59;16.90;99.90
11736;DHT22;5924;51.398;7.088;2023-05-10T09:31:50;16.40;99.90
11736;DHT22;5924;51.398;7.088;2023-05-10T09:34:31;16.70;99.90
11736;DHT22;5924;51.398;7.088;2023-05-10T09:37:32;16.50;99.90
11736;DHT22;5924;51.398;7.088;2023-05-10T09:39:57;16.50;99.90
11736;DHT22;5924;51.398;7.088;2023-05-10T09:42:23;16.60;99.90
11736;DHT22;5924;51.398;7.088;2023-05-10T09:44:49;16.50;99.90
11736;DHT22;5924;51.398;7.088;2023-05-10T09:47:18;16.50;99.90
11736;DHT22;5924;51.398;7.088;2023-05-10T09:57:05;15.90;99.90
11736;DHT22;5924;51.398;7.088;2023-05-10T09:59:33;15.60;99.90
11736;DHT22;5924;51.398;7.088;2023-05-10T10:02:00;15.50;99.90
11736;DHT22;5924;51.398;7.088;2023-05-10T10:04:26;15.40;99.90
11736;DHT22;5924;51.398;7.088;2023-05-10T10:07:04;15.30;99.90
11736;DHT22;5924;51.398;7.088;2023-05-10T10:09:32;15.30;99.90
11736;DHT22;5924;51.398;7.088;2023-05-10T10:15:23;15.30;99.90
11736;DHT22;5924;51.398;7.088;2023-05-10T10:17:50;14.90;99.90
11736;DHT22;5924;51.398;7.088;2023-05-10T10:20:17;16.10;99.90
11736;DHT22;5924;51.398;7.088;2023-05-10T10:22:43;16.60;99.90
11736;DHT22;5924;51.398;7.088;2023-05-10T10:25:10;16.90;99.90
11736;DHT22;5924;51.398;7.088;2023-05-10T10:28:06;17.10;99.90
11736;DHT22;5924;51.398;7.088;2023-05-10T10:30:47;17.00;99.90
11736;DHT22;5924;51.398;7.088;2023-05-10T10:35:53;16.90;99.90
11736;DHT22;5924;51.398;7.088;2023-05-10T10:38:19;16.70;99.90
11736;DHT22;5924;51.398;7.088;2023-05-10T10:40:47;16.50;99.90
11736;DHT22;5924;51.398;7.088;2023-05-10T10:43:25;16.20;99.90
11736;DHT22;5924;51.398;7.088;2023-05-10T10:46:11;14.90;99.90
11736;DHT22;5924;51.398;7.088;2023-05-10T10:49:09;15.80;99.90
11736;DHT22;5924;51.398;7.088;2023-05-10T10:51:39;16.00;99.90
11736;DHT22;5924;51.398;7.088;2023-05-10T10:54:11;16.10;99.90
11736;DHT22;5924;51.398;7.088;2023-05-10T10:56:44;16.10;99.90
11736;DHT22;5924;51.398;7.088;2023-05-10T10:59:10;16.10;99.90
11736;DHT22;5924;51.398;7.088;2023-05-10T11:01:35;17.00;99.90
11736;DHT22;5924;51.398;7.088;2023-05-10T11:06:34;16.00;99.90
11736;DHT22;5924;51.398;7.088;2023-05-10T11:09:20;16.20;99.90
11736;DHT22;5924;51.398;7.088;2023-05-10T11:11:54;15.40;99.90
11736;DHT22;5924;51.398;7.088;2023-05-10T11:14:29;15.10;99.90
11736;DHT22;5924;51.398;7.088;2023-05-10T11:16:56;15.00;99.90
11736;DHT22;5924;51.398;7.088;2023-05-10T11:19:27;15.00;99.90
11736;DHT22;5924;51.398;7.088;2023-05-10T11:24:31;15.30;99.90
11736;DHT22;5924;51.398;7.088;2023-05-10T11:26:59;15.40;99.90
11736;DHT22;5924;51.398;7.088;2023-05-10T11:29:26;15.50;99.90
11736;DHT22;5924;51.398;7.088;2023-05-10T11:31:51;15.50;99.90
11736;DHT22;5924;51.398;7.088;2023-05-10T11:34:28;15.50;99.90
11736;DHT22;5924;51.398;7.088;2023-05-10T11:36:56;15.60;99.90
11736;DHT22;5924;51.398;7.088;2023-05-10T11:39:30;15.80;99.90
11736;DHT22;5924;51.398;7.088;2023-05-10T11:41:56;15.90;99.90
11736;DHT22;5924;51.398;7.088;2023-05-10T11:44:22;16.10;99.90
11736;DHT22;5924;51.398;7.088;2023-05-10T11:46:49;16.00;99.90
11736;DHT22;5924;51.398;7.088;2023-05-10T11:49:14;15.80;99.90
11736;DHT22;5924;51.398;7.088;2023-05-10T11:51:40;15.50;99.90
11736;DHT22;5924;51.398;7.088;2023-05-10T11:54:09;15.40;99.90
11736;DHT22;5924;51.398;7.088;2023-05-10T11:56:39;15.30;99.90
11736;DHT22;5924;51.398;7.088;2023-05-10T11:59:06;15.40;99.90
11736;DHT22;5924;51.398;7.088;2023-05-10T12:01:32;15.60;99.90
11736;DHT22;5924;51.398;7.088;2023-05-10T12:03:58;15.80;99.90
11736;DHT22;5924;51.398;7.088;2023-05-10T12:06:30;16.00;99.90
11736;DHT22;5924;51.398;7.088;2023-05-10T12:08:57;16.20;99.90
11736;DHT22;5924;51.398;7.088;2023-05-10T12:11:27;16.40;99.90
11736;DHT22;5924;51.398;7.088;2023-05-10T12:13:54;16.50;99.90
11736;DHT22;5924;51.398;7.088;2023-05-10T12:16:22;16.40;99.90
11736;DHT22;5924;51.398;7.088;2023-05-10T12:18:52;16.40;99.90
11736;DHT22;5924;51.398;7.088;2023-05-10T12:21:19;16.50;99.90
11736;DHT22;5924;51.398;7.088;2023-05-10T12:23:47;16.70;99.90
11736;DHT22;5924;51.398;7.088;2023-05-10T12:26:14;17.00;99.90
11736;DHT22;5924;51.398;7.088;2023-05-10T12:28:40;16.90;99.90
11736;DHT22;5924;51.398;7.088;2023-05-10T12:31:06;16.70;99.90
11736;DHT22;5924;51.398;7.088;2023-05-10T12:33:43;16.80;99.90
11736;DHT22;5924;51.398;7.088;2023-05-10T12:36:10;16.90;99.90
11736;DHT22;5924;51.398;7.088;2023-05-10T12:38:42;16.80;99.90
11736;DHT22;5924;51.398;7.088;2023-05-10T12:41:10;16.70;99.90
11736;DHT22;5924;51.398;7.088;2023-05-10T12:43:37;16.60;99.90
11736;DHT22;5924;51.398;7.088;2023-05-10T12:46:11;16.60;99.90
11736;DHT22;5924;51.398;7.088;2023-05-10T12:48:38;16.70;99.90
11736;DHT22;5924;51.398;7.088;2023-05-10T12:51:04;16.80;99.90
11736;DHT22;5924;51.398;7.088;2023-05-10T12:53:34;17.00;99.90
11736;DHT22;5924;51.398;7.088;2023-05-10T12:55:59;17.20;99.90
11736;DHT22;5924;51.398;7.088;2023-05-10T12:58:25;17.50;99.90
11736;DHT22;5924;51.398;7.088;2023-05-10T13:00:51;17.70;99.90
11736;DHT22;5924;51.398;7.088;2023-05-10T13:03:17;18.00;99.90
11736;DHT22;5924;51.398;7.088;2023-05-10T13:05:43;18.10;99.90
11736;DHT22;5924;51.398;7.088;2023-05-10T13:08:08;18.20;99.90
11736;DHT22;5924;51.398;7.088;2023-05-10T13:10:34;18.30;99.90
11736;DHT22;5924;51.398;7.088;2023-05-10T13:13:00;18.40;99.90
11736;DHT22;5924;51.398;7.088;2023-05-10T13:15:26;18.50;99.90
11736;DHT22;5924;51.398;7.088;2023-05-10T13:17:53;18.70;99.90
11736;DHT22;5924;51.398;7.088;2023-05-10T13:20:19;18.90;99.90
11736;DHT22;5924;51.398;7.088;2023-05-10T13:22:44;18.80;99.90
11736;DHT22;5924;51.398;7.088;2023-05-10T13:25:10;18.40;99.90
11736;DHT22;5924;51.398;7.088;2023-05-10T13:27:37;18.30;99.90
11736;DHT22;5924;51.398;7.088;2023-05-10T13:30:03;18.40;99.90
11736;DHT22;5924;51.398;7.088;2023-05-10T13:32:29;18.90;99.90
11736;DHT22;5924;51.398;7.088;2023-05-10T13:34:55;19.30;99.90
11736;DHT22;5924;51.398;7.088;2023-05-10T13:37:21;19.80;99.90
11736;DHT22;5924;51.398;7.088;2023-05-10T13:39:47;20.30;99.90
11736;DHT22;5924;51.398;7.088;2023-05-10T13:42:13;20.50;99.90
11736;DHT22;5924;51.398;7.088;2023-05-10T13:44:39;20.80;99.90
11736;DHT22;5924;51.398;7.088;2023-05-10T13:47:05;21.80;99.90
11736;DHT22;5924;51.398;7.088;2023-05-10T13:49:31;22.60;99.90
11736;DHT22;5924;51.398;7.088;2023-05-10T13:51:57;22.80;99.90
11736;DHT22;5924;51.398;7.088;2023-05-10T13:54:23;22.50;99.90
11736;DHT22;5924;51.398;7.088;2023-05-10T13:56:49;21.90;99.90
11736;DHT22;5924;51.398;7.088;2023-05-10T13:59:15;21.40;99.90
11736;DHT22;5924;51.398;7.088;2023-05-10T14:01:41;20.80;99.90
11736;DHT22;5924;51.398;7.088;2023-05-10T14:04:08;20.40;99.90
11736;DHT22;5924;51.398;7.088;2023-05-10T14:06:36;20.50;99.90
11736;DHT22;5924;51.398;7.088;2023-05-10T14:09:02;20.40;99.90
11736;DHT22;5924;51.398;7.088;2023-05-10T14:11:28;20.50;99.90
11736;DHT22;5924;51.398;7.088;2023-05-10T14:13:54;22.20;99.90
11736;DHT22;5924;51.398;7.088;2023-05-10T14:16:20;23.20;99.90
11736;DHT22;5924;51.398;7.088;2023-05-10T14:18:46;24.10;99.90
11736;DHT22;5924;51.398;7.088;2023-05-10T14:21:12;25.30;99.90
11736;DHT22;5924;51.398;7.088;2023-05-10T14:23:38;25.70;99.90
11736;DHT22;5924;51.398;7.088;2023-05-10T14:26:04;25.60;99.90
11736;DHT22;5924;51.398;7.088;2023-05-10T14:28:30;25.90;99.90
11736;DHT22;5924;51.398;7.088;2023-05-10T14:30:56;26.10;99.90
11736;DHT22;5924;51.398;7.088;2023-05-10T14:33:21;26.10;99.90
11736;DHT22;5924;51.398;7.088;2023-05-10T14:35:47;26.70;99.90
11736;DHT22;5924;51.398;7.088;2023-05-10T14:38:14;26.30;99.90
11736;DHT22;5924;51.398;7.088;2023-05-10T14:40:39;25.80;99.90
11736;DHT22;5924;51.398;7.088;2023-05-10T14:43:05;25.20;99.90
11736;DHT22;5924;51.398;7.088;2023-05-10T14:45:31;24.60;99.90
11736;DHT22;5924;51.398;7.088;2023-05-10T14:47:57;23.90;99.90
11736;DHT22;5924;51.398;7.088;2023-05-10T14:50:23;24.40;99.90
11736;DHT22;5924;51.398;7.088;2023-05-10T14:52:49;24.80;99.90
11736;DHT22;5924;51.398;7.088;2023-05-10T14:55:15;25.30;99.90
11736;DHT22;5924;51.398;7.088;2023-05-10T14:57:41;25.80;99.90
11736;DHT22;5924;51.398;7.088;2023-05-10T15:00:07;26.00;99.90
11736;DHT22;5924;51.398;7.088;2023-05-10T15:02:33;27.10;99.90
11736;DHT22;5924;51.398;7.088;2023-05-10T15:04:59;28.20;99.90
11736;DHT22;5924;51.398;7.088;2023-05-10T15:07:24;28.10;99.90
11736;DHT22;5924;51.398;7.088;2023-05-10T15:09:51;28.60;99.90
11736;DHT22;5924;51.398;7.088;2023-05-10T15:12:17;28.30;99.50
11736;DHT22;5924;51.398;7.088;2023-05-10T15:14:43;28.80;98.20
11736;DHT22;5924;51.398;7.088;2023-05-10T15:17:09;28.00;96.10
11736;DHT22;5924;51.398;7.088;2023-05-10T15:19:35;26.10;97.20
11736;DHT22;5924;51.398;7.088;2023-05-10T15:22:02;24.80;98.30
11736;DHT22;5924;51.398;7.088;2023-05-10T15:24:28;23.70;99.90
11736;DHT22;5924;51.398;7.088;2023-05-10T15:26:53;22.40;99.90
11736;DHT22;5924;51.398;7.088;2023-05-10T15:29:19;21.50;99.90
11736;DHT22;5924;51.398;7.088;2023-05-10T15:31:49;20.90;99.90
11736;DHT22;5924;51.398;7.088;2023-05-10T15:34:16;20.40;99.90
11736;DHT22;5924;51.398;7.088;2023-05-10T15:36:42;20.00;99.90
11736;DHT22;5924;51.398;7.088;2023-05-10T15:39:08;19.80;99.90
11736;DHT22;5924;51.398;7.088;2023-05-10T15:41:37;19.70;99.90
11736;DHT22;5924;51.398;7.088;2023-05-10T15:44:03;19.90;99.90
11736;DHT22;5924;51.398;7.088;2023-05-10T15:46:29;20.10;99.90
11736;DHT22;5924;51.398;7.088;2023-05-10T15:48:56;20.30;99.90
11736;DHT22;5924;51.398;7.088;2023-05-10T15:51:22;20.90;99.90
11736;DHT22;5924;51.398;7.088;2023-05-10T15:53:48;22.20;99.90
11736;DHT22;5924;51.398;7.088;2023-05-10T15:56:13;23.20;99.90
11736;DHT22;5924;51.398;7.088;2023-05-10T15:58:40;24.90;99.90
11736;DHT22;5924;51.398;7.088;2023-05-10T16:01:06;25.80;99.90
11736;DHT22;5924;51.398;7.088;2023-05-10T16:03:33;25.70;99.90
11736;DHT22;5924;51.398;7.088;2023-05-10T16:05:59;24.40;99.90
11736;DHT22;5924;51.398;7.088;2023-05-10T16:08:25;23.10;99.90
11736;DHT22;5924;51.398;7.088;2023-05-10T16:10:51;22.00;99.90
11736;DHT22;5924;51.398;7.088;2023-05-10T16:13:17;20.80;99.90
11736;DHT22;5924;51.398;7.088;2023-05-10T16:15:43;20.10;99.90
11736;DHT22;5924;51.398;7.088;2023-05-10T16:18:09;19.60;99.90
11736;DHT22;5924;51.398;7.088;2023-05-10T16:20:35;19.00;99.90
11736;DHT22;5924;51.398;7.088;2023-05-10T16:23:04;18.60;99.90
11736;DHT22;5924;51.398;7.088;2023-05-10T16:25:30;18.20;99.90
11736;DHT22;5924;51.398;7.088;2023-05-10T16:27:56;17.80;99.90
11736;DHT22;5924;51.398;7.088;2023-05-10T16:30:22;17.50;99.90